createdAt,value
2023-05-07T00:00:18.934Z,5.25
2023-05-07T00:02:46.972Z,4.85
2023-05-07T00:05:13.990Z,4.68
2023-05-07T00:07:41.191Z,5.22
2023-05-07T00:10:09.095Z,5.47
2023-05-07T00:12:35.812Z,5.53
2023-05-07T00:15:06.437Z,6.57
2023-05-07T00:17:34.302Z,5.53
2023-05-07T00:20:00.937Z,5.80
2023-05-07T00:22:27.392Z,6.22
2023-05-07T00:24:53.814Z,5.60
2023-05-07T00:27:20.282Z,5.82
2023-05-07T00:29:46.784Z,5.63
2023-05-07T00:32:13.368Z,6.15
2023-05-07T00:34:40.603Z,5.55
2023-05-07T00:37:08.306Z,5.70
2023-05-07T00:39:34.701Z,5.97
2023-05-07T00:42:01.615Z,6.22
2023-05-07T00:44:29.296Z,5.43
2023-05-07T00:46:56.830Z,6.60
2023-05-07T00:49:26.067Z,6.13
2023-05-07T00:51:52.462Z,6.22
2023-05-07T00:54:20.328Z,6.28
2023-05-07T00:56:46.888Z,6.55
2023-05-07T00:59:13.421Z,7.45
2023-05-07T01:01:40.377Z,6.45
2023-05-07T01:04:06.886Z,5.63
2023-05-07T01:06:34.294Z,6.53
2023-05-07T01:09:01.761Z,6.60
2023-05-07T01:11:28.964Z,7.35
2023-05-07T01:13:55.665Z,7.22
2023-05-07T01:16:23.367Z,7.78
2023-05-07T01:18:50.618Z,7.93
2023-05-07T01:21:19.018Z,8.35
2023-05-07T01:23:47.003Z,7.55
2023-05-07T01:26:13.836Z,7.45
2023-05-07T01:28:42.506Z,7.72
2023-05-07T01:31:10.275Z,6.93
2023-05-07T01:33:39.376Z,6.93
2023-05-07T01:36:08.094Z,7.25
2023-05-07T01:38:35.927Z,7.45
2023-05-07T01:41:03.107Z,6.78
2023-05-07T01:43:31.320Z,6.90
2023-05-07T01:45:59.763Z,7.38
2023-05-07T01:48:26.991Z,6.93
2023-05-07T01:50:53.706Z,6.78
2023-05-07T01:53:20.148Z,7.40
2023-05-07T01:55:46.672Z,7.45
2023-05-07T01:58:13.224Z,7.00
2023-05-07T02:00:40.969Z,6.88
2023-05-07T02:03:08.479Z,6.82
2023-05-07T02:05:45.799Z,7.35
2023-05-07T02:08:22.628Z,7.35
2023-05-07T02:10:49.115Z,7.47
2023-05-07T02:13:15.557Z,7.68
2023-05-07T02:15:42.632Z,7.18
2023-05-07T02:18:10.073Z,7.10
2023-05-07T02:20:36.843Z,7.38
2023-05-07T02:23:03.450Z,7.97
2023-05-07T02:25:30.992Z,8.38
2023-05-07T02:27:57.863Z,8.27
2023-05-07T02:30:33.998Z,8.65
2023-05-07T02:33:00.993Z,7.65
2023-05-07T02:35:27.586Z,8.57
2023-05-07T02:37:54.397Z,8.18
2023-05-07T02:40:21.883Z,8.63
2023-05-07T02:42:48.287Z,8.63
2023-05-07T02:45:15.658Z,8.43
2023-05-07T02:47:43.757Z,8.60
2023-05-07T02:50:10.764Z,8.57
2023-05-07T02:52:37.752Z,8.45
2023-05-07T02:55:05.483Z,8.45
2023-05-07T02:57:31.883Z,9.20
2023-05-07T02:59:59.122Z,9.25
2023-05-07T03:02:25.949Z,8.80
2023-05-07T03:04:53.429Z,8.57
2023-05-07T03:07:20.124Z,10.63
2023-05-07T03:09:46.597Z,9.57
2023-05-07T03:12:13.145Z,9.05
2023-05-07T03:14:39.578Z,9.23
2023-05-07T03:17:05.986Z,10.13
2023-05-07T03:19:32.402Z,8.93
2023-05-07T03:21:59.528Z,9.57
2023-05-07T03:24:26.122Z,9.43
2023-05-07T03:26:52.578Z,9.65
2023-05-07T03:29:19.024Z,8.30
2023-05-07T03:31:46.072Z,9.32
2023-05-07T03:34:12.496Z,9.48
2023-05-07T03:36:39.085Z,9.10
2023-05-07T03:39:08.466Z,9.18
2023-05-07T03:41:39.210Z,8.88
2023-05-07T03:44:05.709Z,9.30
2023-05-07T03:46:33.774Z,9.65
2023-05-07T03:49:00.722Z,9.82
2023-05-07T03:51:27.929Z,10.45
2023-05-07T03:53:54.532Z,11.80
2023-05-07T03:56:22.221Z,11.50
2023-05-07T03:58:54.002Z,11.73
2023-05-07T04:01:21.025Z,11.27
2023-05-07T04:03:48.787Z,10.80
2023-05-07T04:06:18.198Z,11.00
2023-05-07T04:08:47.155Z,10.57
2023-05-07T04:11:14.082Z,10.55
2023-05-07T04:13:40.631Z,10.55
2023-05-07T04:16:09.136Z,10.52
2023-05-07T04:18:37.698Z,11.60
2023-05-07T04:21:05.040Z,10.38
2023-05-07T04:23:31.632Z,10.80
2023-05-07T04:26:04.072Z,10.15
2023-05-07T04:28:37.777Z,10.82
2023-05-07T04:31:04.778Z,11.20
2023-05-07T04:33:33.914Z,10.25
2023-05-07T04:36:05.015Z,10.13
2023-05-07T04:38:36.101Z,10.48
2023-05-07T04:41:06.101Z,10.60
2023-05-07T04:43:35.998Z,10.73
2023-05-07T04:46:02.547Z,10.80
2023-05-07T04:48:30.548Z,10.93
2023-05-07T04:50:58.210Z,10.90
2023-05-07T04:53:24.983Z,10.90
2023-05-07T04:55:57.813Z,12.25
2023-05-07T04:58:26.486Z,12.13
2023-05-07T05:00:53.250Z,12.13
2023-05-07T05:03:19.848Z,11.30
2023-05-07T05:05:46.618Z,11.68
2023-05-07T05:08:13.899Z,12.18
2023-05-07T05:10:43.494Z,11.15
2023-05-07T05:13:13.574Z,11.43
2023-05-07T05:15:41.112Z,12.02
2023-05-07T05:18:07.938Z,12.35
2023-05-07T05:20:34.798Z,11.88
2023-05-07T05:23:01.443Z,12.32
2023-05-07T05:25:29.451Z,11.82
2023-05-07T05:27:57.436Z,11.40
2023-05-07T05:30:23.934Z,11.88
2023-05-07T05:32:50.346Z,11.75
2023-05-07T05:35:16.882Z,12.23
2023-05-07T05:37:43.983Z,11.73
2023-05-07T05:40:11.356Z,11.82
2023-05-07T05:42:38.068Z,13.30
2023-05-07T05:45:05.036Z,13.07
2023-05-07T05:47:33.000Z,13.07
2023-05-07T05:50:00.111Z,13.48
2023-05-07T05:52:26.663Z,12.18
2023-05-07T05:54:54.862Z,13.00
2023-05-07T05:57:21.612Z,14.18
2023-05-07T05:59:48.347Z,13.32
2023-05-07T06:02:15.259Z,12.90
2023-05-07T06:04:42.622Z,13.38
2023-05-07T06:07:12.356Z,12.30
2023-05-07T06:09:39.131Z,13.13
2023-05-07T06:12:06.032Z,12.88
2023-05-07T06:14:32.629Z,12.70
2023-05-07T06:16:59.092Z,12.70
2023-05-07T06:19:28.985Z,11.95
2023-05-07T06:21:57.829Z,12.20
2023-05-07T06:24:25.594Z,11.40
2023-05-07T06:26:52.050Z,11.40
2023-05-07T06:29:19.008Z,10.15
2023-05-07T06:31:45.880Z,9.60
2023-05-07T06:34:15.162Z,9.20
2023-05-07T06:36:42.172Z,8.95
2023-05-07T06:39:17.160Z,8.07
2023-05-07T06:41:43.568Z,7.40
2023-05-07T06:44:21.288Z,6.93
2023-05-07T06:46:58.615Z,6.63
2023-05-07T06:49:25.230Z,7.07
2023-05-07T06:51:51.929Z,6.40
2023-05-07T06:54:19.568Z,6.80
2023-05-07T06:56:46.589Z,6.20
2023-05-07T06:59:13.569Z,5.40
2023-05-07T07:01:41.561Z,5.22
2023-05-07T07:04:10.049Z,5.25
2023-05-07T07:06:37.957Z,6.15
2023-05-07T07:09:09.008Z,5.65
2023-05-07T07:11:36.037Z,5.85
2023-05-07T07:14:02.857Z,5.45
2023-05-07T07:16:32.840Z,5.53
2023-05-07T07:18:59.902Z,5.07
2023-05-07T07:21:26.907Z,5.13
2023-05-07T07:23:53.447Z,4.22
2023-05-07T07:26:21.634Z,4.55
2023-05-07T07:28:48.565Z,4.88
2023-05-07T07:31:19.184Z,4.18
2023-05-07T07:33:46.377Z,4.20
2023-05-07T07:36:12.842Z,3.88
2023-05-07T07:38:39.372Z,3.17
2023-05-07T07:41:09.084Z,3.10
2023-05-07T07:43:36.453Z,3.35
2023-05-07T07:46:04.471Z,3.38
2023-05-07T07:48:31.670Z,3.13
2023-05-07T07:50:59.160Z,3.65
2023-05-07T07:53:26.260Z,3.08
2023-05-07T07:55:53.990Z,2.97
2023-05-07T07:58:27.122Z,3.00
2023-05-07T08:00:56.811Z,3.03
2023-05-07T08:03:24.158Z,2.78
2023-05-07T08:05:54.251Z,3.38
2023-05-07T08:08:21.707Z,3.08
2023-05-07T08:10:52.638Z,2.55
2023-05-07T08:13:26.847Z,3.03
2023-05-07T08:15:54.201Z,3.38
2023-05-07T08:18:20.744Z,2.80
2023-05-07T08:20:47.976Z,2.90
2023-05-07T08:23:18.467Z,3.20
2023-05-07T08:25:46.178Z,2.75
2023-05-07T08:28:13.859Z,2.70
2023-05-07T08:30:41.667Z,2.92
2023-05-07T08:33:09.849Z,3.13
2023-05-07T08:35:36.445Z,2.70
2023-05-07T08:38:03.961Z,2.90
2023-05-07T08:40:37.263Z,3.08
2023-05-07T08:45:33.602Z,2.92
2023-05-07T08:48:02.900Z,2.67
2023-05-07T08:50:36.745Z,2.78
2023-05-07T08:53:05.967Z,2.75
2023-05-07T08:55:34.087Z,2.78
2023-05-07T08:58:01.673Z,2.78
2023-05-07T09:00:30.186Z,3.10
2023-05-07T09:02:58.458Z,3.35
2023-05-07T09:05:25.782Z,3.42
2023-05-07T09:07:54.381Z,3.17
2023-05-07T09:10:22.696Z,3.22
2023-05-07T09:12:49.791Z,3.30
2023-05-07T09:15:18.127Z,3.13
2023-05-07T09:17:45.372Z,3.20
2023-05-07T09:20:12.605Z,2.92
2023-05-07T09:22:39.984Z,3.00
2023-05-07T09:25:10.707Z,2.58
2023-05-07T09:27:38.823Z,2.70
2023-05-07T09:30:07.519Z,2.45
2023-05-07T09:32:38.845Z,1.55
2023-05-07T09:35:07.008Z,1.75
2023-05-07T09:37:33.499Z,1.95
2023-05-07T09:40:00.573Z,2.10
2023-05-07T09:42:29.950Z,2.10
2023-05-07T09:45:00.799Z,2.80
2023-05-07T09:47:33.843Z,2.15
2023-05-07T09:50:06.443Z,1.90
2023-05-07T09:52:36.212Z,1.33
2023-05-07T09:55:06.919Z,1.33
2023-05-07T09:57:34.734Z,1.27
2023-05-07T10:00:06.242Z,1.30
2023-05-07T10:02:53.694Z,1.27
2023-05-07T10:05:31.117Z,1.50
2023-05-07T10:08:02.599Z,2.03
2023-05-07T10:10:32.437Z,1.70
2023-05-07T10:12:59.817Z,1.55
2023-05-07T10:15:33.158Z,1.30
2023-05-07T10:18:02.587Z,1.70
2023-05-07T10:20:29.974Z,1.50
2023-05-07T10:22:59.450Z,1.50
2023-05-07T10:25:33.682Z,1.88
2023-05-07T10:28:09.811Z,1.30
2023-05-07T10:31:03.487Z,1.30
2023-05-07T10:33:38.499Z,1.73
2023-05-07T10:36:06.700Z,1.70
2023-05-07T10:38:34.530Z,1.42
2023-05-07T10:41:02.773Z,1.40
2023-05-07T10:43:45.072Z,1.50
2023-05-07T10:46:21.118Z,1.58
2023-05-07T10:49:12.781Z,1.70
2023-05-07T10:52:17.963Z,1.50
2023-05-07T10:55:22.222Z,1.80
2023-05-07T10:58:32.809Z,1.60
2023-05-07T11:01:58.640Z,1.55
2023-05-07T11:04:43.165Z,1.50
2023-05-07T11:07:29.458Z,1.50
2023-05-07T11:10:04.718Z,1.10
2023-05-07T11:12:40.173Z,1.40
2023-05-07T11:15:38.938Z,1.30
2023-05-07T11:18:14.921Z,1.40
2023-05-07T11:20:52.152Z,1.35
2023-05-07T11:23:36.415Z,1.40
2023-05-07T11:26:12.422Z,1.23
2023-05-07T11:28:45.353Z,1.60
2023-05-07T11:31:12.543Z,1.50
2023-05-07T11:33:41.757Z,1.67
2023-05-07T11:36:13.303Z,1.60
2023-05-07T11:38:46.117Z,1.67
2023-05-07T11:41:12.549Z,1.30
2023-05-07T11:43:40.944Z,1.50
2023-05-07T11:46:10.122Z,1.85
2023-05-07T11:48:37.278Z,1.60
2023-05-07T11:51:09.963Z,1.60
2023-05-07T11:53:38.807Z,1.48
2023-05-07T11:56:09.238Z,1.52
2023-05-07T11:58:35.898Z,1.30
2023-05-07T12:01:02.347Z,1.70
2023-05-07T12:03:30.455Z,1.88
2023-05-07T12:05:58.569Z,1.42
2023-05-07T12:08:25.188Z,1.42
2023-05-07T12:10:52.321Z,1.83
2023-05-07T12:13:20.336Z,1.60
2023-05-07T12:15:47.121Z,1.70
2023-05-07T12:18:14.193Z,1.30
2023-05-07T12:20:41.048Z,1.60
2023-05-07T12:23:07.872Z,1.40
2023-05-07T12:25:39.046Z,1.70
2023-05-07T12:28:06.044Z,1.80
2023-05-07T12:30:41.501Z,1.70
2023-05-07T12:33:08.414Z,1.83
2023-05-07T12:35:43.495Z,1.70
2023-05-07T12:38:13.299Z,1.58
2023-05-07T12:40:40.753Z,1.70
2023-05-07T12:43:07.409Z,1.58
2023-05-07T12:45:43.356Z,1.42
2023-05-07T12:48:11.091Z,2.00
2023-05-07T12:50:37.746Z,1.80
2023-05-07T12:53:08.892Z,1.55
2023-05-07T12:55:43.469Z,1.88
2023-05-07T12:58:16.818Z,1.70
2023-05-07T13:00:44.366Z,1.52
2023-05-07T13:03:11.937Z,2.05
2023-05-07T13:05:38.519Z,2.08
2023-05-07T13:08:05.284Z,1.98
2023-05-07T13:10:31.803Z,1.70
2023-05-07T13:12:58.327Z,1.70
2023-05-07T13:15:24.769Z,3.65
2023-05-07T13:17:51.809Z,2.50
2023-05-07T13:20:18.507Z,1.98
2023-05-07T13:22:45.257Z,1.90
2023-05-07T13:25:11.888Z,1.85
2023-05-07T13:27:38.558Z,1.52
2023-05-07T13:30:05.930Z,1.60
2023-05-07T13:32:32.553Z,1.90
2023-05-07T13:34:59.347Z,2.10
2023-05-07T13:37:25.974Z,1.92
2023-05-07T13:39:52.605Z,1.65
2023-05-07T13:42:19.004Z,1.70
2023-05-07T13:44:46.214Z,1.80
2023-05-07T13:47:12.619Z,1.67
2023-05-07T13:49:41.582Z,1.60
2023-05-07T13:52:08.002Z,1.85
2023-05-07T13:54:34.807Z,1.98
2023-05-07T13:57:01.428Z,1.77
2023-05-07T13:59:27.938Z,2.10
2023-05-07T14:01:55.852Z,2.17
2023-05-07T14:04:22.359Z,1.65
2023-05-07T14:06:48.754Z,2.05
2023-05-07T14:09:15.428Z,1.92
2023-05-07T14:11:42.108Z,1.90
2023-05-07T14:14:11.469Z,2.47
2023-05-07T14:16:38.264Z,2.13
2023-05-07T14:19:04.742Z,2.90
2023-05-07T14:21:31.777Z,2.42
2023-05-07T14:23:58.193Z,2.95
2023-05-07T14:26:24.595Z,2.65
2023-05-07T14:28:51.049Z,2.88
2023-05-07T14:31:17.577Z,2.40
2023-05-07T14:33:44.153Z,2.30
2023-05-07T14:36:11.229Z,2.53
2023-05-07T14:38:37.805Z,2.80
2023-05-07T14:41:04.270Z,2.40
2023-05-07T14:43:30.688Z,2.70
2023-05-07T14:45:57.127Z,2.50
2023-05-07T14:48:23.624Z,2.30
2023-05-07T14:50:50.494Z,2.50
2023-05-07T14:53:17.006Z,2.90
2023-05-07T14:55:43.733Z,3.63
2023-05-07T14:58:11.998Z,3.25
2023-05-07T15:00:38.473Z,3.60
2023-05-07T15:03:08.584Z,3.60
2023-05-07T15:05:36.292Z,3.38
2023-05-07T15:08:02.955Z,3.80
2023-05-07T15:10:29.599Z,3.47
2023-05-07T15:12:56.010Z,3.40
2023-05-07T15:15:22.499Z,3.28
2023-05-07T15:17:50.060Z,2.95
2023-05-07T15:20:16.592Z,2.80
2023-05-07T15:22:43.024Z,3.00
2023-05-07T15:25:10.554Z,2.88
2023-05-07T15:27:37.340Z,3.10
2023-05-07T15:30:04.196Z,3.00
2023-05-07T15:32:32.164Z,3.30
2023-05-07T15:34:58.685Z,2.70
2023-05-07T15:37:25.238Z,2.95
2023-05-07T15:39:51.668Z,3.00
2023-05-07T15:42:18.287Z,3.20
2023-05-07T15:44:44.693Z,2.95
2023-05-07T15:47:11.132Z,3.13
2023-05-07T15:49:37.546Z,3.08
2023-05-07T15:52:04.494Z,3.03
2023-05-07T15:54:31.011Z,2.83
2023-05-07T15:56:58.453Z,3.75
2023-05-07T15:59:25.152Z,3.58
2023-05-07T16:01:52.498Z,3.30
2023-05-07T16:04:19.002Z,3.40
2023-05-07T16:06:47.257Z,4.20
2023-05-07T16:09:14.297Z,3.88
2023-05-07T16:11:40.711Z,3.97
2023-05-07T16:14:07.123Z,4.22
2023-05-07T16:16:34.583Z,3.97
2023-05-07T16:19:01.321Z,3.78
2023-05-07T16:21:28.259Z,4.07
2023-05-07T16:23:54.632Z,3.80
2023-05-07T16:26:21.365Z,4.13
2023-05-07T16:28:48.355Z,4.05
2023-05-07T16:31:14.863Z,4.20
2023-05-07T16:33:41.335Z,4.40
2023-05-07T16:36:07.942Z,4.32
2023-05-07T16:38:34.827Z,4.40
2023-05-07T16:41:01.690Z,4.75
2023-05-07T16:43:28.433Z,4.13
2023-05-07T16:45:54.929Z,4.68
2023-05-07T16:48:21.943Z,4.30
2023-05-07T16:50:48.650Z,5.30
2023-05-07T16:53:15.472Z,4.78
2023-05-07T16:55:42.094Z,5.45
2023-05-07T16:58:11.153Z,5.22
2023-05-07T17:00:48.926Z,6.28
2023-05-07T17:03:17.000Z,6.35
2023-05-07T17:05:43.510Z,5.97
2023-05-07T17:08:10.121Z,5.55
2023-05-07T17:10:36.524Z,5.43
2023-05-07T17:13:02.989Z,5.55
2023-05-07T17:15:29.515Z,6.18
2023-05-07T17:17:56.019Z,5.97
2023-05-07T17:20:22.574Z,5.53
2023-05-07T17:22:48.946Z,5.85
2023-05-07T17:25:16.125Z,5.68
2023-05-07T17:27:42.544Z,5.50
2023-05-07T17:30:09.606Z,4.05
2023-05-07T17:32:36.148Z,4.05
2023-05-07T17:35:03.177Z,3.53
2023-05-07T17:37:29.578Z,3.90
2023-05-07T17:39:56.429Z,3.67
2023-05-07T17:42:23.273Z,3.95
2023-05-07T17:44:49.710Z,3.70
2023-05-07T17:47:16.090Z,4.00
2023-05-07T17:49:43.219Z,4.20
2023-05-07T17:52:10.402Z,3.80
2023-05-07T17:54:36.813Z,4.15
2023-05-07T17:57:03.526Z,3.78
2023-05-07T17:59:30.012Z,3.95
2023-05-07T18:01:56.649Z,3.47
2023-05-07T18:04:25.543Z,3.70
2023-05-07T18:06:51.944Z,4.03
2023-05-07T18:09:18.350Z,3.58
2023-05-07T18:11:45.195Z,3.28
2023-05-07T18:14:11.594Z,3.38
2023-05-07T18:16:38.198Z,3.95
2023-05-07T18:19:05.426Z,3.92
2023-05-07T18:21:32.449Z,3.78
2023-05-07T18:23:58.815Z,4.30
2023-05-07T18:26:25.348Z,4.03
2023-05-07T18:28:52.080Z,5.00
2023-05-07T18:31:20.486Z,5.47
2023-05-07T18:33:46.986Z,6.10
2023-05-07T18:36:13.464Z,7.18
2023-05-07T18:38:42.405Z,6.85
2023-05-07T18:41:09.085Z,6.72
2023-05-07T18:43:35.540Z,5.95
2023-05-07T18:46:02.112Z,5.55
2023-05-07T18:48:28.648Z,5.90
2023-05-07T18:50:55.409Z,6.15
2023-05-07T18:53:22.033Z,4.95
2023-05-07T18:55:51.758Z,5.65
2023-05-07T18:58:19.810Z,6.10
2023-05-07T19:00:49.929Z,6.45
2023-05-07T19:03:17.037Z,6.53
2023-05-07T19:05:44.381Z,5.78
2023-05-07T19:08:11.227Z,4.78
2023-05-07T19:10:37.747Z,4.22
2023-05-07T19:13:04.221Z,3.63
2023-05-07T19:15:30.600Z,4.30
2023-05-07T19:17:57.535Z,4.55
2023-05-07T19:20:24.006Z,4.03
2023-05-07T19:22:50.637Z,5.25
2023-05-07T19:25:18.101Z,5.25
2023-05-07T19:27:44.528Z,4.97
2023-05-07T19:30:11.432Z,5.28
2023-05-07T19:32:38.921Z,5.00
2023-05-07T19:35:05.672Z,5.30
2023-05-07T19:37:32.112Z,4.47
2023-05-07T19:39:58.568Z,5.00
2023-05-07T19:42:25.033Z,4.82
2023-05-07T19:44:51.446Z,4.90
2023-05-07T19:47:18.588Z,5.18
2023-05-07T19:49:45.413Z,4.88
2023-05-07T19:52:11.841Z,4.90
2023-05-07T19:54:38.322Z,5.05
2023-05-07T19:57:07.222Z,4.53
2023-05-07T19:59:33.706Z,4.95
2023-05-07T20:02:00.280Z,4.88
2023-05-07T20:04:31.766Z,4.85
2023-05-07T20:06:58.539Z,3.40
2023-05-07T20:09:25.232Z,3.08
2023-05-07T20:11:51.590Z,2.35
2023-05-07T20:14:17.981Z,2.67
2023-05-07T20:16:45.667Z,2.60
2023-05-07T20:19:12.152Z,2.97
2023-05-07T20:21:38.638Z,3.15
2023-05-07T20:24:05.861Z,3.17
2023-05-07T20:26:32.395Z,3.25
2023-05-07T20:28:59.033Z,3.10
2023-05-07T20:31:26.031Z,2.92
2023-05-07T20:33:52.559Z,3.20
2023-05-07T20:36:19.152Z,2.67
2023-05-07T20:38:45.760Z,2.90
2023-05-07T20:41:15.040Z,3.00
2023-05-07T20:43:41.912Z,2.88
2023-05-07T20:46:08.587Z,3.47
2023-05-07T20:48:35.478Z,2.90
2023-05-07T20:51:02.979Z,3.53
2023-05-07T20:53:30.696Z,3.47
2023-05-07T20:55:58.244Z,3.90
2023-05-07T20:58:25.898Z,3.60
2023-05-07T21:00:53.085Z,4.35
2023-05-07T21:03:20.438Z,4.30
2023-05-07T21:05:54.409Z,4.32
2023-05-07T21:08:21.163Z,3.88
2023-05-07T21:10:48.680Z,4.28
2023-05-07T21:13:15.961Z,3.85
2023-05-07T21:15:42.934Z,4.38
2023-05-07T21:18:12.615Z,4.57
2023-05-07T21:20:39.139Z,4.60
2023-05-07T21:23:05.935Z,4.13
2023-05-07T21:25:32.438Z,4.32
2023-05-07T21:27:59.510Z,4.88
2023-05-07T21:30:25.973Z,4.47
2023-05-07T21:32:52.973Z,4.03
2023-05-07T21:35:19.722Z,4.95
2023-05-07T21:37:46.220Z,4.63
2023-05-07T21:40:13.255Z,5.03
2023-05-07T21:42:40.283Z,4.88
2023-05-07T21:45:07.635Z,4.80
2023-05-07T21:47:34.338Z,4.93
2023-05-07T21:50:01.665Z,4.88
2023-05-07T21:52:28.242Z,4.75
2023-05-07T21:54:54.749Z,4.53
2023-05-07T21:57:21.255Z,4.97
2023-05-07T21:59:47.999Z,5.43
2023-05-07T22:02:14.403Z,5.35
2023-05-07T22:04:40.869Z,5.43
2023-05-07T22:07:07.307Z,5.57
2023-05-07T22:09:33.831Z,5.78
2023-05-07T22:12:00.365Z,5.40
2023-05-07T22:14:26.804Z,4.82
2023-05-07T22:16:53.434Z,5.60
2023-05-07T22:19:20.282Z,5.70
2023-05-07T22:21:46.693Z,5.75
2023-05-07T22:24:13.123Z,5.63
2023-05-07T22:26:39.581Z,6.00
2023-05-07T22:29:06.104Z,6.40
2023-05-07T22:31:32.548Z,5.93
2023-05-07T22:33:59.013Z,6.57
2023-05-07T22:36:25.654Z,5.70
2023-05-07T22:38:52.076Z,5.90
2023-05-07T22:41:18.547Z,5.60
2023-05-07T22:43:45.149Z,5.97
2023-05-07T22:46:11.815Z,6.10
2023-05-07T22:48:38.414Z,5.95
2023-05-07T22:51:05.098Z,6.50
2023-05-07T22:53:31.549Z,6.10
2023-05-07T22:55:58.288Z,6.35
2023-05-07T22:58:24.862Z,6.15
2023-05-07T23:00:51.331Z,7.03
2023-05-07T23:03:18.003Z,6.72
2023-05-07T23:05:45.046Z,6.50
2023-05-07T23:08:12.089Z,6.40
2023-05-07T23:10:38.525Z,6.20
2023-05-07T23:13:05.305Z,6.55
2023-05-07T23:15:33.220Z,6.55
2023-05-07T23:18:00.075Z,6.18
2023-05-07T23:20:26.735Z,6.50
2023-05-07T23:22:53.136Z,6.22
2023-05-07T23:25:19.645Z,6.80
2023-05-07T23:27:46.117Z,6.93
2023-05-07T23:30:13.118Z,6.93
2023-05-07T23:32:39.939Z,7.03
2023-05-07T23:35:07.149Z,7.05
2023-05-07T23:37:33.835Z,7.07
2023-05-07T23:40:00.235Z,7.10
2023-05-07T23:42:26.602Z,7.65
2023-05-07T23:44:53.377Z,7.15
2023-05-07T23:47:19.847Z,7.00
2023-05-07T23:49:46.339Z,7.13
2023-05-07T23:52:12.742Z,8.00
2023-05-07T23:54:39.160Z,7.25
2023-05-07T23:57:05.623Z,7.38
2023-05-07T23:59:32.085Z,7.15
